Stations météo

réclame
Mon MeteoGroup
Embrun, France (7591): Température de l'air & dewpoint: 14.01.2018 00:00:00 - 20.01.2018 00:00:00 (CET)Embrun, France (7591): Température de l'air 5cm: 14.01.2018 00:00:00 - 20.01.2018 00:00:00 (CET)Embrun, France (7591): Température de l'air -20cm & Température de l'air -100cm: 14.01.2018 00:00:00 - 20.01.2018 00:00:00 (CET)Embrun, France (7591): Vitesse du vent & gusts: 14.01.2018 00:00:00 - 20.01.2018 00:00:00 (CET)Embrun, France (7591): Direction du vent: 14.01.2018 00:00:00 - 20.01.2018 00:00:00 (CET)Embrun, France (7591): visibility: 14.01.2018 00:00:00 - 20.01.2018 00:00:00 (CET)Embrun, France (7591): Ensoleillement: 14.01.2018 00:00:00 - 20.01.2018 00:00:00 (CET)Embrun, France (7591): Quantités de précipitations: 14.01.2018 00:00:00 - 20.01.2018 00:00:00 (CET)
Date & Time tt [°C] td [°C] tt 5cm [°C] tt -20cm [°C] tt -100cm [°C] ff [km/h] ff [knt] fx [km/h] fx [knt] dd vv [km] sd [min] rr [mm]
20.01.2018 00:00:00 - - - - - - - - - - - - -
19.01.2018 23:00:00 0,2 -5,8 -2,4 3,2 5,2 3 2 11 6 W 20 0 0,0
19.01.2018 22:00:00 0,3 -5,7 -2,3 3,3 5,3 4 2 13 7 NNE 20 0 0,0
19.01.2018 21:00:00 0,6 -5,6 -2,5 3,2 5,3 8 4 11 6 N 20 0 0,0
19.01.2018 20:00:00 1,3 -5,6 -1,9 3,2 5,3 3 2 13 7 NNW 20 0 0,0
19.01.2018 19:00:00 2,7 -5,7 0,5 3,1 5,2 5 3 19 10 S 20 0 0,0
19.01.2018 18:00:00 4,1 -5,4 2,7 3,1 5,3 9 5 37 20 SW 20 0 0,0
19.01.2018 17:00:00 5,6 -4,8 4,7 3,1 5,3 19 10 46 25 SW 20 60 0,0
19.01.2018 16:00:00 7,0 -3,8 8,9 3,0 5,3 29 16 56 30 SSW 20 60 0,0
19.01.2018 15:00:00 7,9 -3,6 10,5 3,0 5,3 32 17 62 33 SSW 20 60 0,0
19.01.2018 14:00:00 8,5 -3,7 11,9 3,0 5,3 29 16 56 31 SSW 20 60 0,0
19.01.2018 13:00:00 8,5 -3,7 12,6 3,0 5,2 26 14 48 26 SSW 20 60 0,0
19.01.2018 12:00:00 8,7 -3,5 12,8 3,0 5,3 16 8 33 18 SSW 20 60 0,0
19.01.2018 11:00:00 7,3 -0,2 0,2 3,0 5,3 11 6 30 16 S 20 39 0,0
19.01.2018 10:00:00 0,5 0,1 -1,7 3,0 5,3 2 1 8 4 WSW 20 0 0,0
19.01.2018 09:00:00 -0,9 -1,7 -2,2 3,0 5,3 3 1 7 4 S 9 0 0,0
19.01.2018 08:00:00 -0,5 -1,3 -2,0 3,0 5,3 4 2 8 5 NE 20 0 0,0
19.01.2018 07:00:00 0,0 -1,3 -1,4 3,0 5,3 0 0 9 5 N 20 0 0,0
19.01.2018 06:00:00 0,8 -1,0 -0,7 3,0 5,3 0 0 9 5 N 20 0 0,0
19.01.2018 05:00:00 1,8 -0,8 1,1 3,0 5,3 4 2 7 4 SW 20 0 0,0
19.01.2018 04:00:00 2,2 -0,9 0,7 3,0 5,3 0 0 10 6 N 20 0 0,0
19.01.2018 03:00:00 2,5 -0,9 1,7 3,0 5,3 8 4 13 7 NE 20 0 0,0
19.01.2018 02:00:00 2,5 -0,8 2,0 3,0 5,2 4 2 12 7 N 20 0 0,0
19.01.2018 01:00:00 2,4 -0,9 2,0 3,0 5,3 3 2 13 7 ENE 20 0 0,0
19.01.2018 00:00:00 2,4 -0,7 1,8 3,0 5,3 7 4 9 5 NE 20 0 0,0
18.01.2018 23:00:00 2,4 -1,0 1,5 3,1 5,3 3 1 5 3 N 17 0 0,0
18.01.2018 22:00:00 2,6 -1,4 0,1 3,1 5,3 0 0 10 5 N 20 0 0,0
18.01.2018 21:00:00 2,3 -1,9 -0,1 3,1 5,3 0 0 8 4 N 20 0 0,0
18.01.2018 20:00:00 3,6 -2,0 1,8 3,0 5,3 3 2 6 3 S 20 0 0,0
18.01.2018 19:00:00 5,1 -1,8 3,8 3,0 5,2 4 2 12 7 WSW 20 0 0,0
18.01.2018 18:00:00 5,5 -1,9 3,6 3,0 5,2 4 2 15 8 SSW 20 0 0,0
18.01.2018 17:00:00 7,0 -2,2 6,6 3,0 5,2 8 4 22 12 SSW 20 58 0,0
18.01.2018 16:00:00 7,3 -2,7 8,7 3,1 5,2 9 5 19 10 S 20 58 0,0
18.01.2018 15:00:00 6,7 -4,1 9,5 3,1 5,2 5 3 16 9 SSW 20 45 0,0
18.01.2018 14:00:00 6,4 -5,9 9,9 3,2 5,2 8 5 13 7 SW 20 55 0,0
18.01.2018 13:00:00 5,8 -7,5 10,5 3,2 5,2 3 2 11 6 ESE 20 60 0,0
18.01.2018 12:00:00 2,9 -8,8 7,5 3,3 5,2 5 3 13 7 ENE 20 52 0,0
18.01.2018 11:00:00 0,6 -8,4 1,8 3,3 5,2 8 4 14 8 ENE 20 39 0,0
18.01.2018 10:00:00 -1,6 -8,6 -2,8 3,3 5,2 9 5 16 8 NE 20 4 0,0
18.01.2018 09:00:00 -3,3 -8,9 -5,0 3,4 5,2 6 4 21 11 NE 20 0 0,0
18.01.2018 08:00:00 -3,7 -9,3 -5,7 3,5 5,2 10 5 16 9 NNE 20 0 0,0
18.01.2018 07:00:00 -3,9 -9,3 -5,4 3,5 5,2 9 5 18 10 NE 20 0 0,0
18.01.2018 06:00:00 -4,1 -9,1 -5,8 3,5 5,2 9 5 22 12 NE 20 0 0,0
18.01.2018 05:00:00 -4,1 -9,3 -5,8 3,6 5,2 5 3 26 14 NE 20 0 0,0
18.01.2018 04:00:00 -2,8 -9,5 -5,5 3,6 5,2 14 8 27 15 NNE 20 0 0,0
18.01.2018 03:00:00 -3,2 -9,3 -5,2 3,7 5,2 7 4 17 9 N 20 0 0,0
18.01.2018 02:00:00 -3,2 -8,9 -5,4 3,7 5,2 11 6 18 10 NNE 20 0 0,0
18.01.2018 01:00:00 -2,7 -9,4 -5,3 3,8 5,2 0 0 17 9 N 20 0 0,0
18.01.2018 00:00:00 -1,9 -9,3 -4,0 3,8 5,2 9 5 16 9 NE 20 0 0,0
17.01.2018 23:00:00 -1,2 -9,3 -3,5 3,8 5,2 13 7 26 14 NNE 20 0 0,0
17.01.2018 22:00:00 -0,9 -8,4 -2,3 3,8 5,2 13 7 19 10 NNE 20 0 0,0
17.01.2018 21:00:00 -0,2 -8,4 -2,2 3,8 5,2 11 6 19 11 NNE 20 0 0,0
17.01.2018 20:00:00 -0,1 -8,5 -3,1 3,7 5,2 9 5 15 8 N 20 0 0,0
17.01.2018 19:00:00 0,8 -9,0 -1,9 3,7 5,2 4 2 29 16 E 20 0 0,0
17.01.2018 18:00:00 1,5 -8,6 0,5 3,7 5,2 9 5 41 22 SW 20 0 0,0
17.01.2018 17:00:00 2,2 -8,8 1,6 3,7 5,2 21 11 58 32 SW 20 55 0,0
17.01.2018 16:00:00 3,8 -8,3 5,6 3,6 5,2 27 15 51 27 SW 20 60 0,0
17.01.2018 15:00:00 4,3 -5,8 6,6 3,6 5,2 25 14 73 39 SW 20 60 0,0
17.01.2018 14:00:00 4,2 -6,4 4,8 3,6 5,2 36 19 67 36 SW 20 53 0,0
17.01.2018 13:00:00 2,7 -3,9 4,8 3,6 5,2 35 19 77 42 SW 20 60 0,0
17.01.2018 12:00:00 3,5 -6,5 3,9 3,6 5,2 35 19 74 40 SW 20 35 0,0
17.01.2018 11:00:00 3,6 -5,9 4,4 3,6 5,1 33 18 75 40 SW 20 20 0,0
17.01.2018 10:00:00 4,2 -7,9 3,1 3,6 5,1 28 15 66 36 SW 20 3 0,0
17.01.2018 09:00:00 3,1 -4,1 2,4 3,6 5,2 32 17 67 36 SW 19 0 0,0
17.01.2018 08:00:00 2,6 -3,5 2,3 3,6 5,2 37 20 77 42 SW 20 0 0,0
17.01.2018 07:00:00 4,5 -5,6 2,4 3,6 5,2 30 16 69 37 SW 20 0 0,0
17.01.2018 06:00:00 4,2 0,3 2,8 3,6 5,2 33 18 68 37 SW 17 0 0,0
17.01.2018 05:00:00 5,6 -0,1 4,3 3,6 5,2 39 21 66 35 SSW 20 0 0,0
17.01.2018 04:00:00 5,9 0,0 4,4 3,5 5,2 22 12 66 36 SSW 20 0 0,0
17.01.2018 03:00:00 6,6 0,5 4,2 3,5 5,2 21 11 42 23 SSW 20 0 0,2
17.01.2018 02:00:00 5,1 4,4 4,4 3,5 5,2 9 5 33 18 SSW 20 0 0,4
17.01.2018 01:00:00 5,4 4,7 4,7 3,4 5,1 14 8 26 14 SSW 7 0 0,6
17.01.2018 00:00:00 5,2 4,5 4,6 3,4 5,1 9 5 31 17 S 6 0 1,6
16.01.2018 23:00:00 5,0 4,7 4,6 3,4 5,2 10 5 26 14 S 20 0 0,4
16.01.2018 22:00:00 5,2 4,6 4,6 3,3 5,1 15 8 26 14 SSW 12 0 0,4
16.01.2018 21:00:00 6,1 3,6 4,6 3,3 5,2 16 9 33 18 SW 15 0 0,2
16.01.2018 20:00:00 5,9 2,7 4,7 3,3 5,2 7 4 26 14 SW 20 0 0,0
16.01.2018 19:00:00 5,9 1,8 5,4 3,2 5,1 14 8 42 23 SSW 20 0 0,0
16.01.2018 18:00:00 7,5 2,0 6,5 3,1 5,2 23 12 52 28 WSW 20 0 0,0
16.01.2018 17:00:00 7,7 2,4 7,1 3,1 5,2 25 13 48 26 WSW 20 41 0,0
16.01.2018 16:00:00 8,5 2,9 8,4 3,0 5,1 26 14 56 31 SW 20 51 0,0
16.01.2018 15:00:00 9,0 2,8 10,0 3,0 5,2 24 13 52 28 SW 20 54 0,0
16.01.2018 14:00:00 7,8 2,5 9,4 2,9 5,1 25 13 41 22 WSW 20 43 0,0
16.01.2018 13:00:00 6,5 3,1 5,3 2,9 5,2 11 6 21 12 S 20 22 0,0
16.01.2018 12:00:00 3,4 2,2 3,7 2,9 5,2 16 9 29 16 SSW 20 3 0,0
16.01.2018 11:00:00 3,4 1,6 2,5 2,9 5,2 14 7 26 14 S 20 6 0,0
16.01.2018 10:00:00 1,9 1,2 1,8 2,9 5,2 6 4 25 14 S 20 0 0,0
16.01.2018 09:00:00 1,9 0,9 1,4 2,9 5,2 11 6 21 11 SSW 20 0 0,0
16.01.2018 08:00:00 1,5 0,9 1,4 2,9 5,2 8 4 20 11 S 20 0 0,0
16.01.2018 07:00:00 1,7 1,1 1,1 2,9 5,2 8 4 18 10 SSW 20 0 0,0
16.01.2018 06:00:00 1,6 1,2 1,3 2,9 5,2 8 5 20 11 SSW 20 0 0,0
16.01.2018 05:00:00 1,6 1,2 1,2 2,8 5,1 11 6 23 12 S 20 0 0,0
16.01.2018 04:00:00 1,6 1,0 1,0 2,9 5,2 9 5 21 11 SSW 20 0 0,0
16.01.2018 03:00:00 1,2 0,9 0,9 2,9 5,2 13 7 24 13 SSW 19 0 0,4
16.01.2018 02:00:00 1,7 0,8 1,3 2,9 5,2 13 7 27 15 S 15 0 0,0
16.01.2018 01:00:00 1,7 0,5 0,8 2,8 5,2 10 5 21 11 SSW 20 0 0,0
16.01.2018 00:00:00 1,1 0,8 0,2 2,8 5,2 8 4 26 14 S 20 0 0,4
15.01.2018 23:00:00 1,0 0,3 0,2 2,8 5,2 10 5 21 11 SSW 7 0 1,4
15.01.2018 22:00:00 2,3 0,4 1,4 2,8 5,2 11 6 22 12 SSW 13 0 0,6
15.01.2018 21:00:00 3,8 -1,4 2,9 2,7 5,2 8 4 19 11 S 20 0 0,0
15.01.2018 20:00:00 4,3 -2,1 3,8 2,7 5,2 11 6 18 10 S 20 0 0,0
15.01.2018 19:00:00 4,5 -2,4 3,2 2,6 5,2 10 5 19 11 SSW 20 0 0,0
15.01.2018 18:00:00 4,0 -2,2 3,3 2,6 5,2 8 5 23 12 S 20 0 0,0
15.01.2018 17:00:00 5,1 -2,0 5,0 2,6 5,2 15 8 32 18 SSW 20 31 0,0
15.01.2018 16:00:00 6,7 -2,2 7,3 2,5 5,2 16 8 34 18 SSW 20 54 0,0
15.01.2018 15:00:00 6,3 -2,1 8,2 2,5 5,2 18 10 32 17 SSW 20 57 0,0
15.01.2018 14:00:00 6,9 -3,4 11,2 2,5 5,2 11 6 19 11 S 20 54 0,0
15.01.2018 13:00:00 5,4 -4,5 7,5 2,5 5,2 3 2 9 5 ESE 20 41 0,0
15.01.2018 12:00:00 2,6 -4,8 3,5 2,5 5,2 2 1 11 6 NE 19 0 0,0
15.01.2018 11:00:00 2,0 -5,2 2,3 2,5 5,2 5 3 30 16 NNE 20 2 0,0
15.01.2018 10:00:00 1,2 -5,3 -0,6 2,5 5,2 16 9 29 16 NNE 20 9 0,0
15.01.2018 09:00:00 -0,6 -5,4 -1,2 2,5 5,2 14 8 22 12 NNE 20 0 0,0
15.01.2018 08:00:00 -0,3 -5,5 -1,2 2,5 5,2 12 7 20 11 NE 20 0 0,0
15.01.2018 07:00:00 0,2 -5,2 -0,6 2,6 5,2 10 5 26 14 NNE 20 0 0,0
15.01.2018 06:00:00 0,9 -5,1 0,1 2,5 5,2 16 9 26 14 NNE 20 0 0,0
15.01.2018 05:00:00 0,7 -4,9 -0,1 2,6 5,2 14 8 27 15 NE 20 0 0,0
15.01.2018 04:00:00 0,4 -4,8 -0,8 2,5 5,2 10 5 16 9 NNE 20 0 0,0
15.01.2018 03:00:00 1,0 -4,8 -0,1 2,6 5,2 13 7 23 12 NNE 20 0 0,0
15.01.2018 02:00:00 1,7 -4,6 0,9 2,6 5,2 16 9 23 13 NNE 20 0 0,0
15.01.2018 01:00:00 1,4 -4,3 -0,2 2,6 5,2 8 5 16 9 NE 20 0 0,0
15.01.2018 00:00:00 1,2 -4,3 0,0 2,6 5,2 4 2 24 13 NE 20 0 0,0
14.01.2018 23:00:00 2,3 -4,2 0,4 2,5 5,2 11 6 23 12 NNE 20 0 0,0
14.01.2018 22:00:00 2,1 -4,0 0,1 2,5 5,2 8 4 13 7 NE 20 0 0,0
14.01.2018 21:00:00 2,7 -3,6 1,2 2,5 5,2 4 2 9 5 NE 20 0 0,0
14.01.2018 20:00:00 3,0 -3,4 1,3 2,5 5,2 3 1 4 2 NNE 20 0 0,0
14.01.2018 19:00:00 3,5 -3,3 2,5 2,5 5,2 2 1 5 3 S 20 0 0,0
14.01.2018 18:00:00 4,4 -4,6 3,0 2,5 5,2 0 0 3 2 N 20 0 0,0
14.01.2018 17:00:00 5,1 -5,0 4,5 2,5 5,2 2 1 4 2 WSW 20 0 0,0
14.01.2018 16:00:00 5,9 -4,6 6,9 2,5 5,2 2 1 14 8 SSE 20 11 0,0
14.01.2018 15:00:00 6,0 -6,0 7,8 2,5 5,2 6 3 13 7 NE 20 0 0,0
14.01.2018 14:00:00 5,7 -6,2 6,7 2,5 5,3 9 5 27 14 NE 20 0 0,0
14.01.2018 13:00:00 5,1 -6,5 6,4 2,5 5,2 15 8 31 17 NNE 20 51 0,0
14.01.2018 12:00:00 3,6 -7,0 3,8 2,6 5,3 23 12 34 18 NNE 20 7 0,0
14.01.2018 11:00:00 2,3 -7,1 2,3 2,6 5,2 18 10 32 17 NNE 20 0 0,0
14.01.2018 10:00:00 1,2 -7,1 0,6 2,6 5,2 9 5 35 19 NNE 20 0 0,0
14.01.2018 09:00:00 0,5 -7,7 -0,1 2,6 5,3 23 13 43 23 NNE 20 0 0,0
14.01.2018 08:00:00 0,2 -7,8 -0,7 2,6 5,3 26 14 40 22 N 20 0 0,0
14.01.2018 07:00:00 -0,3 -7,8 -0,7 2,6 5,2 20 11 40 21 NNE 20 0 0,0
14.01.2018 06:00:00 -0,2 -7,9 -1,2 2,6 5,3 26 14 39 21 N 20 0 0,0
14.01.2018 05:00:00 -0,6 -8,1 -1,1 2,7 5,3 24 13 40 21 NNE 20 0 0,0
14.01.2018 04:00:00 -0,7 -7,9 -1,4 2,7 5,3 27 14 41 22 NNE 20 0 0,0
14.01.2018 03:00:00 -0,5 -8,0 -1,5 2,7 5,3 25 13 39 21 NNE 20 0 0,0
14.01.2018 02:00:00 -0,5 -7,8 -1,3 2,7 5,3 21 12 39 21 NNE 20 0 0,0
14.01.2018 01:00:00 -0,3 -7,6 -1,6 2,7 5,3 20 11 34 19 NNE 20 0 0,0
14.01.2018 00:00:00 0,0 -7,3 -0,9 2,7 5,3 21 11 40 22 NNE 20 0 0,0

tt = Température de l'air
td = dewpoint
tt 5cm = Température de l'air 5cm
tt -20cm = Température de l'air -20cm
tt -100cm = Température de l'air -100cm
ff = Vitesse du vent
fx = gusts
dd = Direction du vent
vv = visibility
sd = Ensoleillement
rr = Quantités de précipitations

stations d'obs. à proximité